createdAt,value
2022-10-08T00:01:30.281Z,2.90
2022-10-08T00:04:00.423Z,3.58
2022-10-08T00:06:30.823Z,4.00
2022-10-08T00:09:00.672Z,2.35
2022-10-08T00:11:30.986Z,2.95
2022-10-08T00:13:59.475Z,2.45
2022-10-08T00:16:30.478Z,2.40
2022-10-08T00:19:02.470Z,1.90
2022-10-08T00:21:32.764Z,2.60
2022-10-08T00:24:02.390Z,3.47
2022-10-08T00:26:32.512Z,2.70
2022-10-08T00:29:03.246Z,4.80
2022-10-08T00:31:33.583Z,2.50
2022-10-08T00:34:05.966Z,3.75
2022-10-08T00:36:36.549Z,3.20
2022-10-08T00:39:07.313Z,3.40
2022-10-08T00:41:38.363Z,3.07
2022-10-08T00:44:39.691Z,2.67
2022-10-08T00:47:16.483Z,3.08
2022-10-08T00:49:47.069Z,2.65
2022-10-08T00:52:15.529Z,2.77
2022-10-08T00:54:43.645Z,2.95
2022-10-08T00:57:12.344Z,3.13
2022-10-08T00:59:40.555Z,2.47
2022-10-08T01:02:10.190Z,1.92
2022-10-08T01:04:39.864Z,2.95
2022-10-08T01:07:19.199Z,2.70
2022-10-08T01:09:52.703Z,2.88
2022-10-08T01:12:29.325Z,3.20
2022-10-08T01:15:00.521Z,2.42
2022-10-08T01:17:39.685Z,3.08
2022-10-08T01:20:30.264Z,2.65
2022-10-08T01:23:22.741Z,2.15
2022-10-08T01:25:57.447Z,2.13
2022-10-08T01:28:33.376Z,3.60
2022-10-08T01:31:09.842Z,2.35
2022-10-08T01:33:46.669Z,2.63
2022-10-08T01:36:18.729Z,2.90
2022-10-08T01:38:55.460Z,2.40
2022-10-08T01:41:29.571Z,2.33
2022-10-08T01:44:06.208Z,2.55
2022-10-08T01:46:37.941Z,2.17
2022-10-08T01:49:11.430Z,2.95
2022-10-08T01:51:44.973Z,3.00
2022-10-08T01:54:16.636Z,2.65
2022-10-08T01:56:47.544Z,2.78
2022-10-08T01:59:20.473Z,3.38
2022-10-08T02:01:56.571Z,2.15
2022-10-08T02:04:35.369Z,3.17
2022-10-08T02:07:08.355Z,4.43
2022-10-08T02:09:40.814Z,2.80
2022-10-08T02:12:10.330Z,2.33
2022-10-08T02:14:44.671Z,2.53
2022-10-08T02:17:24.710Z,3.28
2022-10-08T02:19:58.027Z,2.78
2022-10-08T02:22:32.542Z,3.40
2022-10-08T02:25:06.976Z,2.40
2022-10-08T02:27:46.296Z,3.22
2022-10-08T02:30:16.928Z,2.40
2022-10-08T02:32:51.370Z,2.55
2022-10-08T02:35:25.536Z,2.33
2022-10-08T02:37:59.096Z,1.60
2022-10-08T02:40:30.584Z,2.38
2022-10-08T02:45:35.791Z,2.15
2022-10-08T02:48:08.473Z,2.80
2022-10-08T02:50:41.389Z,2.30
2022-10-08T02:53:14.687Z,2.22
2022-10-08T02:55:50.864Z,2.53
2022-10-08T02:58:19.587Z,3.53
2022-10-08T03:00:53.102Z,2.80
2022-10-08T03:03:26.866Z,2.50
2022-10-08T03:05:57.006Z,2.58
2022-10-08T03:08:25.437Z,2.33
2022-10-08T03:10:54.574Z,2.63
2022-10-08T03:13:24.836Z,3.03
2022-10-08T03:15:55.831Z,3.33
2022-10-08T03:18:25.696Z,2.75
2022-10-08T03:20:56.289Z,2.38
2022-10-08T03:23:25.548Z,2.50
2022-10-08T03:25:53.668Z,2.85
2022-10-08T03:28:21.856Z,3.80
2022-10-08T03:30:50.118Z,2.33
2022-10-08T03:33:19.813Z,2.15
2022-10-08T03:35:48.444Z,2.42
2022-10-08T03:38:17.565Z,2.13
2022-10-08T03:40:55.208Z,2.65
2022-10-08T03:43:23.996Z,2.33
2022-10-08T03:45:53.221Z,1.63
2022-10-08T03:48:23.889Z,2.88
2022-10-08T03:50:53.984Z,3.13
2022-10-08T03:53:22.785Z,2.42
2022-10-08T03:55:51.236Z,3.10
2022-10-08T03:58:20.225Z,2.95
2022-10-08T04:00:58.273Z,2.42
2022-10-08T04:03:28.564Z,3.03
2022-10-08T04:05:56.819Z,3.60
2022-10-08T04:08:25.404Z,3.47
2022-10-08T04:10:53.871Z,2.00
2022-10-08T04:13:22.532Z,2.45
2022-10-08T04:15:51.680Z,2.63
2022-10-08T04:18:20.116Z,2.92
2022-10-08T04:20:49.517Z,2.78
2022-10-08T04:23:17.730Z,3.22
2022-10-08T04:25:51.028Z,2.80
2022-10-08T04:28:19.633Z,1.90
2022-10-08T04:30:56.515Z,2.42
2022-10-08T04:33:24.802Z,2.58
2022-10-08T04:35:59.938Z,2.28
2022-10-08T04:38:28.660Z,2.22
2022-10-08T04:41:05.176Z,2.67
2022-10-08T04:43:33.700Z,3.65
2022-10-08T04:46:02.059Z,2.45
2022-10-08T04:48:30.662Z,2.47
2022-10-08T04:51:04.072Z,2.25
2022-10-08T04:53:34.693Z,3.08
2022-10-08T04:56:11.302Z,2.40
2022-10-08T04:58:40.274Z,2.03
2022-10-08T05:01:10.986Z,2.58
2022-10-08T05:03:39.880Z,2.38
2022-10-08T05:06:10.293Z,2.97
2022-10-08T05:08:39.100Z,2.25
2022-10-08T05:11:07.830Z,3.15
2022-10-08T05:13:36.461Z,2.30
2022-10-08T05:16:05.961Z,2.08
2022-10-08T05:18:34.735Z,2.40
2022-10-08T05:21:07.209Z,3.30
2022-10-08T05:23:37.480Z,3.60
2022-10-08T05:26:13.344Z,2.40
2022-10-08T05:28:41.620Z,2.60
2022-10-08T05:31:09.887Z,3.47
2022-10-08T05:33:38.147Z,2.30
2022-10-08T05:36:08.109Z,1.98
2022-10-08T05:38:37.742Z,3.13
2022-10-08T05:41:10.564Z,2.40
2022-10-08T05:43:38.808Z,2.35
2022-10-08T05:46:07.343Z,2.28
2022-10-08T05:48:36.006Z,2.30
2022-10-08T05:51:07.866Z,2.15
2022-10-08T05:53:38.756Z,2.95
2022-10-08T05:56:08.760Z,2.45
2022-10-08T05:58:39.655Z,2.50
2022-10-08T06:01:09.226Z,2.33
2022-10-08T06:03:37.380Z,2.42
2022-10-08T06:06:07.448Z,2.67
2022-10-08T06:08:37.850Z,2.45
2022-10-08T06:11:07.130Z,3.17
2022-10-08T06:13:35.674Z,2.88
2022-10-08T06:16:05.942Z,2.50
2022-10-08T06:18:37.147Z,2.78
2022-10-08T06:21:07.332Z,2.85
2022-10-08T06:23:37.771Z,2.55
2022-10-08T06:26:07.565Z,2.97
2022-10-08T06:28:37.894Z,2.72
2022-10-08T06:31:07.577Z,3.20
2022-10-08T06:33:35.915Z,1.73
2022-10-08T06:36:05.164Z,2.13
2022-10-08T06:38:33.827Z,2.65
2022-10-08T06:41:03.318Z,2.20
2022-10-08T06:43:31.412Z,2.70
2022-10-08T06:46:00.301Z,2.72
2022-10-08T06:48:28.942Z,2.40
2022-10-08T06:51:01.035Z,2.65
2022-10-08T06:53:29.847Z,2.97
2022-10-08T06:55:58.949Z,2.00
2022-10-08T06:58:28.862Z,2.28
2022-10-08T07:01:04.990Z,2.63
2022-10-08T07:03:33.588Z,2.22
2022-10-08T07:06:02.852Z,2.45
2022-10-08T07:08:31.227Z,2.53
2022-10-08T07:11:05.221Z,4.55
2022-10-08T07:13:35.314Z,2.60
2022-10-08T07:16:05.766Z,2.75
2022-10-08T07:18:35.114Z,3.03
2022-10-08T07:21:03.391Z,2.05
2022-10-08T07:23:31.737Z,1.83
2022-10-08T07:26:01.831Z,2.70
2022-10-08T07:28:32.186Z,2.70
2022-10-08T07:31:06.154Z,2.50
2022-10-08T07:33:34.495Z,2.03
2022-10-08T07:36:10.692Z,2.33
2022-10-08T07:38:39.087Z,2.28
2022-10-08T07:41:08.648Z,2.53
2022-10-08T07:43:36.820Z,2.47
2022-10-08T07:46:08.637Z,4.13
2022-10-08T07:48:37.285Z,2.80
2022-10-08T07:51:11.999Z,2.67
2022-10-08T07:53:40.611Z,2.90
2022-10-08T07:56:10.242Z,2.67
2022-10-08T07:58:38.689Z,3.53
2022-10-08T08:01:11.930Z,2.17
2022-10-08T08:03:40.175Z,2.38
2022-10-08T08:06:10.828Z,2.13
2022-10-08T08:08:40.346Z,3.00
2022-10-08T08:11:10.340Z,3.00
2022-10-08T08:13:39.749Z,2.35
2022-10-08T08:16:11.947Z,2.75
2022-10-08T08:18:42.520Z,2.63
2022-10-08T08:21:13.390Z,2.65
2022-10-08T08:23:44.091Z,2.63
2022-10-08T08:26:14.807Z,2.97
2022-10-08T08:28:43.149Z,2.13
2022-10-08T08:31:15.700Z,2.53
2022-10-08T08:33:44.563Z,2.00
2022-10-08T08:36:12.652Z,2.75
2022-10-08T08:38:41.275Z,2.22
2022-10-08T08:41:34.436Z,2.17
2022-10-08T08:44:09.482Z,2.67
2022-10-08T08:46:43.364Z,3.00
2022-10-08T08:49:24.291Z,2.92
2022-10-08T08:51:53.721Z,2.33
2022-10-08T08:54:22.781Z,2.22
2022-10-08T08:56:52.469Z,2.45
2022-10-08T08:59:28.213Z,2.45
2022-10-08T09:02:02.313Z,2.25
2022-10-08T09:04:45.043Z,2.58
2022-10-08T09:07:16.407Z,3.15
2022-10-08T09:09:48.684Z,3.35
2022-10-08T09:12:21.552Z,1.70
2022-10-08T09:14:54.724Z,2.75
2022-10-08T09:17:31.650Z,2.92
2022-10-08T09:20:00.633Z,3.47
2022-10-08T09:22:31.442Z,2.92
2022-10-08T09:25:02.218Z,2.63
2022-10-08T09:27:48.116Z,2.57
2022-10-08T09:30:32.046Z,2.42
2022-10-08T09:33:04.436Z,2.95
2022-10-08T09:35:34.699Z,2.30
2022-10-08T09:38:05.879Z,1.73
2022-10-08T09:43:15.927Z,1.88
2022-10-08T09:48:20.046Z,2.47
2022-10-08T09:50:53.077Z,1.83
2022-10-08T09:53:22.853Z,1.77
2022-10-08T09:55:55.701Z,2.58
2022-10-08T09:58:24.148Z,1.75
2022-10-08T10:01:05.348Z,2.00
2022-10-08T10:03:38.295Z,1.83
2022-10-08T10:06:06.893Z,2.60
2022-10-08T10:08:56.046Z,2.08
2022-10-08T10:11:31.369Z,2.05
2022-10-08T10:14:04.638Z,2.13
2022-10-08T10:16:37.602Z,2.47
2022-10-08T10:19:13.618Z,2.05
2022-10-08T10:21:47.811Z,1.63
2022-10-08T10:24:31.690Z,2.17
2022-10-08T10:27:07.224Z,1.67
2022-10-08T10:29:47.116Z,1.80
2022-10-08T10:32:21.235Z,2.40
2022-10-08T10:35:02.614Z,2.15
2022-10-08T10:37:40.000Z,1.58
2022-10-08T10:40:41.248Z,2.00
2022-10-08T10:43:32.430Z,1.80
2022-10-08T10:46:16.760Z,2.28
2022-10-08T10:48:44.871Z,1.67
2022-10-08T10:51:33.211Z,2.70
2022-10-08T10:54:12.697Z,1.73
2022-10-08T10:56:59.397Z,1.85
2022-10-08T10:59:39.935Z,1.88
2022-10-08T11:02:15.088Z,1.42
2022-10-08T11:04:51.926Z,2.35
2022-10-08T11:07:48.157Z,1.60
2022-10-08T11:10:30.957Z,1.98
2022-10-08T11:13:09.012Z,2.17
2022-10-08T11:15:44.099Z,1.98
2022-10-08T11:18:21.635Z,2.22
2022-10-08T11:21:06.755Z,1.58
2022-10-08T11:24:12.221Z,1.60
2022-10-08T11:26:46.996Z,2.17
2022-10-08T11:29:21.643Z,1.90
2022-10-08T11:31:51.993Z,2.15
2022-10-08T11:34:24.868Z,1.77
2022-10-08T11:37:08.528Z,2.47
2022-10-08T11:39:46.999Z,2.22
2022-10-08T11:42:22.696Z,1.80
2022-10-08T11:44:50.850Z,1.90
2022-10-08T11:47:48.713Z,1.90
2022-10-08T11:50:29.078Z,2.65
2022-10-08T11:53:01.050Z,1.95
2022-10-08T11:55:33.530Z,2.13
2022-10-08T11:58:09.121Z,1.42
2022-10-08T12:00:43.047Z,1.80
2022-10-08T12:03:24.589Z,2.03
2022-10-08T12:05:55.254Z,2.17
2022-10-08T12:08:55.551Z,2.03
2022-10-08T12:11:51.016Z,1.55
2022-10-08T12:14:28.334Z,1.95
2022-10-08T12:17:17.546Z,1.73
2022-10-08T12:20:04.763Z,1.27
2022-10-08T12:22:44.532Z,1.50
2022-10-08T12:25:37.934Z,2.00
2022-10-08T12:28:53.709Z,2.63
2022-10-08T12:31:43.389Z,1.27
2022-10-08T12:34:18.430Z,1.35
2022-10-08T12:36:59.486Z,0.88
2022-10-08T12:39:37.277Z,2.13
2022-10-08T12:42:17.104Z,1.65
2022-10-08T12:45:10.537Z,1.20
2022-10-08T12:47:48.105Z,1.20
2022-10-08T12:50:44.537Z,1.20
2022-10-08T12:53:16.674Z,1.23
2022-10-08T12:55:49.817Z,0.95
2022-10-08T12:58:20.353Z,1.60
2022-10-08T13:00:53.774Z,1.40
2022-10-08T13:03:23.407Z,1.50
2022-10-08T13:05:53.575Z,0.95
2022-10-08T13:08:33.433Z,1.38
2022-10-08T13:11:04.827Z,1.55
2022-10-08T13:16:03.851Z,1.17
2022-10-08T13:18:35.290Z,2.10
2022-10-08T13:21:06.021Z,1.30
2022-10-08T13:23:36.619Z,1.40
2022-10-08T13:26:05.046Z,1.40
2022-10-08T13:28:59.226Z,1.15
2022-10-08T13:31:24.762Z,1.05
2022-10-08T13:33:54.570Z,1.35
2022-10-08T13:36:24.423Z,1.30
2022-10-08T13:38:52.653Z,3.13
2022-10-08T13:41:25.291Z,1.30
2022-10-08T13:43:53.550Z,1.42
2022-10-08T13:46:21.755Z,1.52
2022-10-08T13:48:50.091Z,1.10
2022-10-08T13:51:19.505Z,1.13
2022-10-08T13:53:47.624Z,1.92
2022-10-08T13:56:18.330Z,1.02
2022-10-08T13:58:46.412Z,0.90
2022-10-08T14:01:14.642Z,1.67
2022-10-08T14:03:42.924Z,1.00
2022-10-08T14:06:11.130Z,1.92
2022-10-08T14:08:40.627Z,1.40
2022-10-08T14:11:17.626Z,2.10
2022-10-08T14:13:45.822Z,1.38
2022-10-08T14:16:14.700Z,1.20
2022-10-08T14:18:42.936Z,1.80
2022-10-08T14:21:13.703Z,1.38
2022-10-08T14:23:43.536Z,1.25
2022-10-08T14:26:12.508Z,0.90
2022-10-08T14:28:40.797Z,1.30
2022-10-08T14:31:09.204Z,1.20
2022-10-08T14:33:37.284Z,0.90
2022-10-08T14:36:07.451Z,0.77
2022-10-08T14:38:36.223Z,1.02
2022-10-08T14:41:06.000Z,1.08
2022-10-08T14:43:34.087Z,1.33
2022-10-08T14:46:02.413Z,1.10
2022-10-08T14:48:30.586Z,1.08
2022-10-08T14:50:59.138Z,1.15
2022-10-08T14:53:27.593Z,1.70
2022-10-08T14:56:11.413Z,1.33
2022-10-08T14:58:42.834Z,1.15
2022-10-08T15:01:11.296Z,1.48
2022-10-08T15:03:39.438Z,1.45
2022-10-08T15:06:08.404Z,0.80
2022-10-08T15:08:36.586Z,1.50
2022-10-08T15:11:05.338Z,1.15
2022-10-08T15:13:33.758Z,1.55
2022-10-08T15:16:04.163Z,1.40
2022-10-08T15:18:33.100Z,1.63
2022-10-08T15:21:02.129Z,1.52
2022-10-08T15:23:30.532Z,2.13
2022-10-08T15:25:59.789Z,2.30
2022-10-08T15:28:29.067Z,1.75
2022-10-08T15:31:12.765Z,1.45
2022-10-08T15:33:42.115Z,1.38
2022-10-08T15:36:21.631Z,1.05
2022-10-08T15:38:55.685Z,0.95
2022-10-08T15:41:24.330Z,1.30
2022-10-08T15:43:52.920Z,1.45
2022-10-08T15:46:26.232Z,1.00
2022-10-08T15:48:56.181Z,0.88
2022-10-08T15:51:25.346Z,1.40
2022-10-08T15:53:53.563Z,0.93
2022-10-08T15:56:21.670Z,1.50
2022-10-08T15:58:51.253Z,0.93
2022-10-08T16:01:24.062Z,1.80
2022-10-08T16:03:54.185Z,1.58
2022-10-08T16:06:24.416Z,0.90
2022-10-08T16:08:53.084Z,0.93
2022-10-08T16:11:23.365Z,1.42
2022-10-08T16:13:54.723Z,1.00
2022-10-08T16:16:24.566Z,1.05
2022-10-08T16:18:57.331Z,1.42
2022-10-08T16:21:26.128Z,1.40
2022-10-08T16:23:54.584Z,1.35
2022-10-08T16:26:23.082Z,1.55
2022-10-08T16:28:55.180Z,2.97
2022-10-08T16:31:26.104Z,1.58
2022-10-08T16:33:57.186Z,1.65
2022-10-08T16:36:26.931Z,1.90
2022-10-08T16:38:55.540Z,2.58
2022-10-08T16:41:25.728Z,2.83
2022-10-08T16:43:55.616Z,1.92
2022-10-08T16:46:27.882Z,1.13
2022-10-08T16:48:58.067Z,2.17
2022-10-08T16:51:28.045Z,1.80
2022-10-08T16:53:57.775Z,1.83
2022-10-08T16:56:27.610Z,1.15
2022-10-08T16:58:58.170Z,2.28
2022-10-08T17:01:28.893Z,1.60
2022-10-08T17:03:57.498Z,2.95
2022-10-08T17:06:27.803Z,1.35
2022-10-08T17:08:56.438Z,1.67
2022-10-08T17:11:24.682Z,1.27
2022-10-08T17:13:54.438Z,1.75
2022-10-08T17:16:24.878Z,1.58
2022-10-08T17:18:56.425Z,2.58
2022-10-08T17:23:52.770Z,2.47
2022-10-08T17:26:22.900Z,3.38
2022-10-08T17:28:52.637Z,3.00
2022-10-08T17:31:22.751Z,3.22
2022-10-08T17:33:51.266Z,2.67
2022-10-08T17:36:22.865Z,2.40
2022-10-08T17:41:22.617Z,3.58
2022-10-08T17:43:51.506Z,3.92
2022-10-08T17:46:21.562Z,4.45
2022-10-08T17:48:50.221Z,4.90
2022-10-08T17:51:21.797Z,6.60
2022-10-08T17:53:53.610Z,5.40
2022-10-08T17:56:22.890Z,4.80
2022-10-08T17:58:51.150Z,3.83
2022-10-08T18:01:21.204Z,2.78
2022-10-08T18:03:53.531Z,2.17
2022-10-08T18:06:25.714Z,3.13
2022-10-08T18:08:55.911Z,2.50
2022-10-08T18:11:24.421Z,1.80
2022-10-08T18:13:52.744Z,2.38
2022-10-08T18:16:21.988Z,3.90
2022-10-08T18:18:50.428Z,2.65
2022-10-08T18:21:20.772Z,2.33
2022-10-08T18:23:50.346Z,2.25
2022-10-08T18:26:22.478Z,2.58
2022-10-08T18:28:53.160Z,2.17
2022-10-08T18:31:22.745Z,2.00
2022-10-08T18:33:53.363Z,1.90
2022-10-08T18:36:23.943Z,2.03
2022-10-08T18:38:58.992Z,2.40
2022-10-08T18:41:28.962Z,2.45
2022-10-08T18:43:59.213Z,2.58
2022-10-08T18:46:28.197Z,2.55
2022-10-08T18:48:57.179Z,2.78
2022-10-08T18:51:29.078Z,2.38
2022-10-08T18:54:02.143Z,2.95
2022-10-08T18:56:34.447Z,4.32
2022-10-08T18:59:05.076Z,2.67
2022-10-08T19:01:35.533Z,3.07
2022-10-08T19:04:06.760Z,2.85
2022-10-08T19:06:37.101Z,3.63
2022-10-08T19:09:08.239Z,2.67
2022-10-08T19:11:44.228Z,2.92
2022-10-08T19:14:14.870Z,3.70
2022-10-08T19:16:43.142Z,2.25
2022-10-08T19:19:15.333Z,2.45
2022-10-08T19:21:43.994Z,3.15
2022-10-08T19:24:15.768Z,4.13
2022-10-08T19:26:44.557Z,2.42
2022-10-08T19:29:15.931Z,3.53
2022-10-08T19:31:47.884Z,2.50
2022-10-08T19:34:18.342Z,3.20
2022-10-08T19:36:46.501Z,2.70
2022-10-08T19:39:18.814Z,2.85
2022-10-08T19:41:47.938Z,2.97
2022-10-08T19:44:17.348Z,2.33
2022-10-08T19:46:45.719Z,2.90
2022-10-08T19:49:14.171Z,3.50
2022-10-08T19:51:42.524Z,3.20
2022-10-08T19:54:10.780Z,3.53
2022-10-08T19:56:40.397Z,4.03
2022-10-08T19:59:08.666Z,3.55
2022-10-08T20:01:39.336Z,3.90
2022-10-08T20:04:08.802Z,3.42
2022-10-08T20:06:40.006Z,2.95
2022-10-08T20:09:12.030Z,3.03
2022-10-08T20:11:42.618Z,2.08
2022-10-08T20:14:11.554Z,2.20
2022-10-08T20:16:41.741Z,3.33
2022-10-08T20:19:16.735Z,2.50
2022-10-08T20:21:45.514Z,3.55
2022-10-08T20:24:13.937Z,2.75
2022-10-08T20:26:45.628Z,3.13
2022-10-08T20:29:16.420Z,3.00
2022-10-08T20:31:46.784Z,2.50
2022-10-08T20:34:17.775Z,3.13
2022-10-08T20:36:46.929Z,4.38
2022-10-08T20:39:16.880Z,4.45
2022-10-08T20:41:46.619Z,4.57
2022-10-08T20:44:15.200Z,4.15
2022-10-08T20:46:43.785Z,2.85
2022-10-08T20:49:12.933Z,3.00
2022-10-08T20:51:42.269Z,2.72
2022-10-08T20:54:12.675Z,2.92
2022-10-08T20:56:41.857Z,3.15
2022-10-08T20:59:15.672Z,4.93
2022-10-08T21:01:44.091Z,2.03
2022-10-08T21:04:12.407Z,2.00
2022-10-08T21:06:42.819Z,1.77
2022-10-08T21:09:11.940Z,2.03
2022-10-08T21:11:40.990Z,1.60
2022-10-08T21:14:11.299Z,2.03
2022-10-08T21:16:41.134Z,1.52
2022-10-08T21:19:13.071Z,1.05
2022-10-08T21:21:41.903Z,1.50
2022-10-08T21:24:10.236Z,1.30
2022-10-08T21:26:40.380Z,1.20
2022-10-08T21:29:12.630Z,1.52
2022-10-08T21:31:42.345Z,3.50
2022-10-08T21:34:12.207Z,1.80
2022-10-08T21:36:42.375Z,2.10
2022-10-08T21:39:15.597Z,1.42
2022-10-08T21:41:44.071Z,2.75
2022-10-08T21:44:14.489Z,1.77
2022-10-08T21:46:43.965Z,2.15
2022-10-08T21:49:20.588Z,2.33
2022-10-08T21:51:48.826Z,1.75
2022-10-08T21:54:18.690Z,2.00
2022-10-08T21:56:47.017Z,1.73
2022-10-08T21:59:17.415Z,2.10
2022-10-08T22:01:47.406Z,1.92
2022-10-08T22:04:17.225Z,1.42
2022-10-08T22:06:47.353Z,2.67
2022-10-08T22:09:18.507Z,2.67
2022-10-08T22:11:46.800Z,1.52
2022-10-08T22:14:17.022Z,2.28
2022-10-08T22:16:45.556Z,1.73
2022-10-08T22:19:13.855Z,1.48
2022-10-08T22:21:42.286Z,2.90
2022-10-08T22:24:11.113Z,1.45
2022-10-08T22:26:41.637Z,1.55
2022-10-08T22:29:10.656Z,1.70
2022-10-08T22:31:40.760Z,1.65
2022-10-08T22:34:09.083Z,1.45
2022-10-08T22:36:40.740Z,1.80
2022-10-08T22:39:09.673Z,1.83
2022-10-08T22:41:38.171Z,2.13
2022-10-08T22:44:06.710Z,1.50
2022-10-08T22:46:37.789Z,1.70
2022-10-08T22:49:08.993Z,1.25
2022-10-08T22:51:37.836Z,1.85
2022-10-08T22:54:06.070Z,1.38
2022-10-08T22:56:34.561Z,1.33
2022-10-08T22:59:02.835Z,1.80
2022-10-08T23:01:31.907Z,1.73
2022-10-08T23:04:00.422Z,2.22
2022-10-08T23:06:32.657Z,1.98
2022-10-08T23:09:02.539Z,1.98
2022-10-08T23:11:31.733Z,3.15
2022-10-08T23:14:01.508Z,1.58
2022-10-08T23:16:32.395Z,1.52
2022-10-08T23:19:02.412Z,2.25
2022-10-08T23:21:32.469Z,2.15
2022-10-08T23:24:00.857Z,2.40
2022-10-08T23:26:29.953Z,2.35
2022-10-08T23:28:59.785Z,1.80
2022-10-08T23:31:30.367Z,1.80
2022-10-08T23:33:59.038Z,1.60
2022-10-08T23:36:29.753Z,1.27
2022-10-08T23:38:59.756Z,1.40
2022-10-08T23:41:28.696Z,1.90
2022-10-08T23:43:58.404Z,2.08
2022-10-08T23:46:28.629Z,1.48
2022-10-08T23:48:57.804Z,1.77
2022-10-08T23:51:28.202Z,2.00
2022-10-08T23:53:56.570Z,1.90
2022-10-08T23:56:26.312Z,1.70
2022-10-08T23:58:54.511Z,1.52
